Current | Forecast
Updated: 10:00 AM JST on November 19, 2017
Observed at Toyama Airport, Japan
Temperature 43°F
Windchill 39°F
Humidity 76%
Dew Point 36°F
Wind WSW at 6 mph
Pressure 29.98 in (Steady)
Conditions Light Rain Showers
Visibility 6.2 miles
UV 2 out of 16
Clouds (FEW) : 1000 ft
Scattered Clouds (SCT) : 3000 ft
Mostly Cloudy (BKN) : 4000 ft
Yesterday's Maximum 54°F
Yesterday's Minimum 41°F approx.
Yesterday's Heating Degree Days 18 approx.
Sunrise6:34 AM JST
Sunset4:41 PM JST
Moon Rise6:50 AM JST
Moon Set5:29 PM JST
Moon PhaseMoon Phase
New Moon
Raw METARMETAR RJNT 190100Z 25005KT 210V270 9999 -SHRA FEW010 SCT030 BKN040 06/02 Q1015


Monday
. High: 78° F.
Tuesday
. High: 75° F.
Wednesday
. High: 69° F.
Thursday
. High: 75° F.
Friday
. High: 69° F.
Saturday
. High: 68° F.
Sunday
. High: 73° F.
Monday
. High: 66° F.

Units: English | Metric

Find the Weather for any City, State or Zipcode, or Country:

U.S. State List | Severe Weather | Tropical Storms | Ski Conditions
United States | Canada | Central America | South America | Asia | Europe | Australia | Africa | Islands

Weather Underground

© Copyright 2017
The Weather Company, LLC